Time;durP1;ratioP1;P1;durP2;ratioP2;P2;SDS_P1;SDS_P2;PMS_P1;PMS_P2;Temp;Humidity;BMP_temperature;BMP_pressure;BME280_temperature;BME280_humidity;BME280_pressure;Samples;Min_cycle;Max_cycle;Signal;HPM_P1;HPM_P2
2022/04/19 00:02:02;;;;;;;14.98;1.88;;;;;;;;;;4935585;29;20075;-80
2022/04/19 00:04:29;;;;;;;13.52;1.83;;;;;;;;;;4935504;29;20048;-78
2022/04/19 00:06:56;;;;;;;9.30;1.88;;;;;;;;;;4935722;29;20103;-78
2022/04/19 00:09:22;;;;;;;14.70;2.67;;;;;;;;;;4934832;29;20133;-78
2022/04/19 00:11:49;;;;;;;10.77;2.10;;;;;;;;;;4935187;29;20082;-81
2022/04/19 00:14:16;;;;;;;15.07;1.77;;;;;;;;;;4935201;29;20450;-81
2022/04/19 00:16:42;;;;;;;17.00;2.17;;;;;;;;;;4934914;29;20078;-81
2022/04/19 00:19:09;;;;;;;12.13;1.75;;;;;;;;;;4933894;29;20536;-81
2022/04/19 00:21:35;;;;;;;10.55;2.20;;;;;;;;;;4935181;29;20055;-80
2022/04/19 00:24:02;;;;;;;8.90;1.90;;;;;;;;;;4935297;29;20050;-80
2022/04/19 00:26:29;;;;;;;16.13;2.22;;;;;;;;;;4934789;29;20071;-81
2022/04/19 00:28:55;;;;;;;10.98;2.03;;;;;;;;;;4934862;29;20106;-81
2022/04/19 00:31:22;;;;;;;12.25;2.13;;;;;;;;;;4934648;29;20099;-80
2022/04/19 00:33:49;;;;;;;10.77;2.55;;;;;;;;;;4934904;29;20056;-81
2022/04/19 00:36:15;;;;;;;11.68;2.33;;;;;;;;;;4934488;29;20067;-80
2022/04/19 00:38:42;;;;;;;7.05;2.00;;;;;;;;;;4932129;29;20075;-80
2022/04/19 00:41:08;;;;;;;12.25;2.55;;;;;;;;;;4934173;29;20067;-81
2022/04/19 00:43:35;;;;;;;14.85;2.47;;;;;;;;;;4935644;29;20059;-80
2022/04/19 00:46:02;;;;;;;14.43;2.70;;;;;;;;;;4934426;29;20138;-80
2022/04/19 00:48:29;;;;;;;13.07;2.42;;;;;;;;;;4934136;29;20126;-80
2022/04/19 00:50:56;;;;;;;6.93;2.00;;;;;;;;;;4934500;29;20122;-80
2022/04/19 00:53:26;;;;;;;15.52;2.28;;;;;;;;;;4934135;29;20083;-80
2022/04/19 00:55:57;;;;;;;10.00;2.63;;;;;;;;;;4934781;29;20146;-79
2022/04/19 00:58:24;;;;;;;9.77;2.30;;;;;;;;;;4934808;29;20043;-81
2022/04/19 01:00:51;;;;;;;10.00;2.42;;;;;;;;;;4934385;29;20059;-80
2022/04/19 01:03:18;;;;;;;9.15;2.53;;;;;;;;;;4916347;29;20046;-80
2022/04/19 01:05:46;;;;;;;11.50;2.83;;;;;;;;;;4934134;29;20078;-79
2022/04/19 01:08:14;;;;;;;15.18;2.35;;;;;;;;;;4933961;29;20103;-79
2022/04/19 01:10:43;;;;;;;14.23;2.42;;;;;;;;;;4933540;29;20107;-79
2022/04/19 01:13:18;;;;;;;9.85;2.40;;;;;;;;;;4933127;29;20075;-79
2022/04/19 01:15:47;;;;;;;10.40;2.10;;;;;;;;;;4933912;29;20421;-79
2022/04/19 01:18:20;;;;;;;17.50;2.78;;;;;;;;;;4934250;29;20071;-80
2022/04/19 01:20:48;;;;;;;15.45;3.28;;;;;;;;;;4933512;29;20106;-81
2022/04/19 01:23:18;;;;;;;18.77;2.80;;;;;;;;;;4933339;29;20043;-81
2022/04/19 01:25:45;;;;;;;13.40;2.95;;;;;;;;;;4934099;29;20106;-80
2022/04/19 01:28:12;;;;;;;11.63;2.30;;;;;;;;;;4933816;29;20475;-81
2022/04/19 01:30:39;;;;;;;10.90;2.20;;;;;;;;;;4932881;29;20148;-80
2022/04/19 01:33:06;;;;;;;13.95;2.20;;;;;;;;;;4933318;29;20047;-81
2022/04/19 01:35:33;;;;;;;11.73;2.20;;;;;;;;;;4933590;29;20054;-81
2022/04/19 01:37:59;;;;;;;13.27;2.40;;;;;;;;;;4933558;29;20472;-79
2022/04/19 01:40:26;;;;;;;12.32;2.88;;;;;;;;;;4933477;29;20043;-81
2022/04/19 01:42:59;;;;;;;10.77;2.30;;;;;;;;;;4933509;29;20130;-80
2022/04/19 01:45:28;;;;;;;13.48;2.10;;;;;;;;;;4933378;29;20055;-80
2022/04/19 01:47:56;;;;;;;11.93;2.53;;;;;;;;;;4933661;29;20052;-80
2022/04/19 01:50:27;;;;;;;12.80;2.50;;;;;;;;;;4933011;29;20058;-80
2022/04/19 01:52:56;;;;;;;7.63;2.10;;;;;;;;;;4933290;29;20516;-79
2022/04/19 01:55:23;;;;;;;13.23;3.05;;;;;;;;;;4933356;29;20516;-80
2022/04/19 01:57:57;;;;;;;13.98;2.47;;;;;;;;;;4933220;29;20047;-79
2022/04/19 02:00:29;;;;;;;9.95;2.88;;;;;;;;;;4933207;29;20107;-80
2022/04/19 02:02:57;;;;;;;11.90;2.40;;;;;;;;;;4932975;29;20130;-80
2022/04/19 02:05:24;;;;;;;12.90;2.80;;;;;;;;;;4932419;29;21041;-80
2022/04/19 02:07:51;;;;;;;14.93;2.35;;;;;;;;;;4916714;29;20095;-80
2022/04/19 02:10:18;;;;;;;12.25;2.25;;;;;;;;;;4933305;29;20071;-79
2022/04/19 02:12:45;;;;;;;9.90;2.85;;;;;;;;;;4932820;29;20075;-80
2022/04/19 02:15:14;;;;;;;8.73;2.47;;;;;;;;;;4932479;29;20036;-80
2022/04/19 02:17:48;;;;;;;11.60;2.42;;;;;;;;;;4932587;29;20043;-81
2022/04/19 02:20:17;;;;;;;8.55;2.20;;;;;;;;;;4932854;29;20071;-80
2022/04/19 02:22:44;;;;;;;;;;;;;;;;;;4933446;29;20469;-80
2022/04/19 02:25:12;;;;;;;16.25;2.58;;;;;;;;;;4932756;29;19922;-80
2022/04/19 02:27:41;;;;;;;11.07;2.65;;;;;;;;;;4933323;29;20460;-80
2022/04/19 02:30:13;;;;;;;12.15;3.05;;;;;;;;;;4932659;29;20103;-80
2022/04/19 02:32:42;;;;;;;10.38;2.40;;;;;;;;;;4932860;29;20134;-81
2022/04/19 02:35:09;;;;;;;18.60;3.10;;;;;;;;;;4932111;29;20091;-80
2022/04/19 02:37:37;;;;;;;12.63;2.45;;;;;;;;;;4933040;29;20067;-80
2022/04/19 02:40:04;;;;;;;12.23;3.42;;;;;;;;;;4932540;29;20051;-80
2022/04/19 02:42:31;;;;;;;10.52;2.40;;;;;;;;;;4932019;29;20468;-81
2022/04/19 02:44:57;;;;;;;16.13;2.90;;;;;;;;;;4932471;29;20121;-81
2022/04/19 02:47:24;;;;;;;10.40;2.58;;;;;;;;;;4930785;29;20087;-82
2022/04/19 02:49:51;;;;;;;10.15;2.35;;;;;;;;;;4931968;29;20051;-82
2022/04/19 02:52:17;;;;;;;12.80;3.22;;;;;;;;;;4932379;29;20082;-81
2022/04/19 02:54:44;;;;;;;8.02;2.47;;;;;;;;;;4932019;29;20063;-81
2022/04/19 02:57:10;;;;;;;17.17;3.42;;;;;;;;;;4930936;29;20068;-81
2022/04/19 02:59:37;;;;;;;9.88;3.05;;;;;;;;;;4932589;29;20122;-81
2022/04/19 03:02:05;;;;;;;9.93;4.05;;;;;;;;;;4917741;29;20394;-81
2022/04/19 03:04:32;;;;;;;13.18;3.67;;;;;;;;;;4928377;29;20070;-80
2022/04/19 03:06:59;;;;;;;18.92;3.05;;;;;;;;;;4931841;29;20047;-80
2022/04/19 03:09:25;;;;;;;13.10;3.20;;;;;;;;;;4932342;29;20501;-81
2022/04/19 03:11:52;;;;;;;11.30;2.60;;;;;;;;;;4932272;29;20143;-81
2022/04/19 03:14:19;;;;;;;12.98;3.03;;;;;;;;;;4932201;29;20072;-81
2022/04/19 03:16:46;;;;;;;11.90;2.53;;;;;;;;;;4932557;29;20052;-81
2022/04/19 03:19:13;;;;;;;17.55;3.40;;;;;;;;;;4932430;29;20135;-80
2022/04/19 03:21:41;;;;;;;13.20;3.17;;;;;;;;;;4932129;29;20047;-81
2022/04/19 03:29:39;;;;;;;11.50;2.60;;;;;;;;;;4931554;29;20544;-81
2022/04/19 03:32:05;;;;;;;9.00;2.40;;;;;;;;;;4931688;29;20587;-80
2022/04/19 03:34:32;;;;;;;11.75;3.28;;;;;;;;;;4929089;29;20099;-81
2022/04/19 03:36:59;;;;;;;10.85;2.70;;;;;;;;;;4932012;29;20086;-81
2022/04/19 03:39:25;;;;;;;7.93;2.40;;;;;;;;;;4932009;29;20071;-81
2022/04/19 03:41:52;;;;;;;6.38;2.17;;;;;;;;;;4932214;29;20048;-81
2022/04/19 03:44:19;;;;;;;8.15;2.40;;;;;;;;;;4931485;29;20043;-81
2022/04/19 03:49:32;;;;;;;10.35;2.10;;;;;;;;;;4928067;29;20139;-81
2022/04/19 03:51:59;;;;;;;9.65;2.13;;;;;;;;;;4932414;29;20145;-80
2022/04/19 03:54:25;;;;;;;12.45;2.05;;;;;;;;;;4932058;29;20078;-80
2022/04/19 03:56:52;;;;;;;11.90;2.10;;;;;;;;;;4931555;29;20796;-80
2022/04/19 03:59:19;;;;;;;12.45;2.67;;;;;;;;;;4931576;29;20048;-80
2022/04/19 04:01:45;;;;;;;13.25;2.42;;;;;;;;;;4932235;29;20079;-81
2022/04/19 04:04:12;;;;;;;9.52;1.85;;;;;;;;;;4931522;29;20139;-81
2022/04/19 04:06:39;;;;;;;14.70;3.65;;;;;;;;;;4933863;29;20146;-80
2022/04/19 04:09:05;;;;;;;13.60;2.28;;;;;;;;;;4934630;29;20513;-80
2022/04/19 04:11:32;;;;;;;7.85;2.00;;;;;;;;;;4935422;29;20102;-80
2022/04/19 04:13:58;;;;;;;5.15;1.63;;;;;;;;;;4934771;29;20055;-81
2022/04/19 04:16:25;;;;;;;13.05;2.10;;;;;;;;;;4935516;29;20465;-81
2022/04/19 04:18:52;;;;;;;11.65;1.75;;;;;;;;;;4935149;29;20052;-81
2022/04/19 04:21:18;;;;;;;12.65;3.22;;;;;;;;;;4934592;29;20543;-81
2022/04/19 04:23:45;;;;;;;9.15;1.70;;;;;;;;;;4934822;29;20079;-81
2022/04/19 04:26:12;;;;;;;17.38;2.38;;;;;;;;;;4934724;29;20497;-79
2022/04/19 04:28:38;;;;;;;9.57;2.10;;;;;;;;;;4935318;29;20512;-80
2022/04/19 04:31:06;;;;;;;10.75;2.08;;;;;;;;;;4934553;29;20052;-80
2022/04/19 04:33:32;;;;;;;12.43;2.05;;;;;;;;;;4934797;29;20054;-80
2022/04/19 04:35:59;;;;;;;10.48;2.05;;;;;;;;;;4934494;29;20043;-81
2022/04/19 04:38:26;;;;;;;15.07;2.15;;;;;;;;;;4934547;29;20089;-82
2022/04/19 04:40:52;;;;;;;9.60;1.83;;;;;;;;;;4934700;29;20151;-82
2022/04/19 04:43:19;;;;;;;12.27;1.70;;;;;;;;;;4934394;29;20048;-82
2022/04/19 04:49:35;;;;;;;10.90;1.88;;;;;;;;;;4934870;29;20079;-81
2022/04/19 04:51:17;;;;;;;11.52;2.30;;;;;;;;;;4934772;29;20055;-81
2022/04/19 04:53:43;;;;;;;13.73;2.40;;;;;;;;;;4934264;29;20086;-81
2022/04/19 04:56:10;;;;;;;10.02;1.83;;;;;;;;;;4933930;29;20103;-81
2022/04/19 04:58:36;;;;;;;7.45;1.80;;;;;;;;;;4934861;29;20587;-81
2022/04/19 05:01:03;;;;;;;12.45;2.22;;;;;;;;;;4934495;29;20079;-81
2022/04/19 05:03:30;;;;;;;10.60;2.47;;;;;;;;;;4934151;29;20051;-81
2022/04/19 05:05:57;;;;;;;9.40;1.90;;;;;;;;;;4933869;29;20110;-82
2022/04/19 05:08:23;;;;;;;13.25;1.95;;;;;;;;;;4933353;29;20146;-81
2022/04/19 05:10:50;;;;;;;10.77;2.05;;;;;;;;;;4934253;29;20481;-81
2022/04/19 05:13:16;;;;;;;13.52;2.10;;;;;;;;;;4931122;29;20055;-81
2022/04/19 05:15:43;;;;;;;8.80;2.03;;;;;;;;;;4933865;29;20154;-81
2022/04/19 05:18:11;;;;;;;7.80;2.60;;;;;;;;;;4933430;29;20488;-81
2022/04/19 05:20:37;;;;;;;9.10;2.33;;;;;;;;;;4934513;29;20074;-81
2022/04/19 05:23:05;;;;;;;10.75;2.50;;;;;;;;;;4918343;29;20070;-80
2022/04/19 05:25:32;;;;;;;7.40;2.08;;;;;;;;;;4930347;29;20070;-81
2022/04/19 05:27:58;;;;;;;10.82;2.65;;;;;;;;;;4934384;29;20040;-81
2022/04/19 05:30:25;;;;;;;12.55;2.40;;;;;;;;;;4933294;29;20468;-81
2022/04/19 05:32:52;;;;;;;9.93;2.17;;;;;;;;;;4933595;29;20078;-81
2022/04/19 05:35:18;;;;;;;8.93;1.95;;;;;;;;;;4933850;29;20071;-81
2022/04/19 05:37:46;;;;;;;10.27;2.20;;;;;;;;;;4934038;29;20483;-81
2022/04/19 05:40:14;;;;;;;8.02;2.47;;;;;;;;;;4933248;29;20094;-81
2022/04/19 05:42:40;;;;;;;10.40;2.50;;;;;;;;;;4933567;29;20051;-82
2022/04/19 05:45:07;;;;;;;13.15;2.67;;;;;;;;;;4932326;29;20044;-81
2022/04/19 05:47:34;;;;;;;13.95;4.13;;;;;;;;;;4933915;29;20130;-82
2022/04/19 05:50:00;;;;;;;21.27;7.70;;;;;;;;;;4917142;29;20106;-81
2022/04/19 05:52:27;;;;;;;23.95;4.07;;;;;;;;;;4933661;29;20095;-81
2022/04/19 05:54:54;;;;;;;17.83;3.53;;;;;;;;;;4932985;29;20079;-82
2022/04/19 05:57:20;;;;;;;14.68;3.42;;;;;;;;;;4932781;29;20074;-81
2022/04/19 05:59:47;;;;;;;12.57;3.25;;;;;;;;;;4933278;29;20048;-82
2022/04/19 06:04:59;;;;;;;7.78;2.03;;;;;;;;;;4932923;29;20055;-82
2022/04/19 06:07:29;;;;;;;10.63;2.28;;;;;;;;;;4933753;29;20051;-82
2022/04/19 06:09:57;;;;;;;5.95;1.80;;;;;;;;;;4932844;29;20098;-82
2022/04/19 06:12:23;;;;;;;6.85;1.88;;;;;;;;;;4932628;29;20055;-82
2022/04/19 06:14:50;;;;;;;11.07;1.80;;;;;;;;;;4932480;29;20051;-83
2022/04/19 06:17:17;;;;;;;14.30;2.10;;;;;;;;;;4932880;29;20628;-83
2022/04/19 06:19:44;;;;;;;9.43;3.17;;;;;;;;;;4933034;29;20509;-83
2022/04/19 06:22:11;;;;;;;9.75;3.28;;;;;;;;;;4933445;29;20052;-82
2022/04/19 06:24:37;;;;;;;9.10;2.13;;;;;;;;;;4932246;29;20135;-82
2022/04/19 06:27:04;;;;;;;8.27;2.17;;;;;;;;;;4932302;29;20047;-81
2022/04/19 06:29:31;;;;;;;8.68;2.10;;;;;;;;;;4932169;29;20070;-82
2022/04/19 06:31:57;;;;;;;9.20;1.52;;;;;;;;;;4933369;29;20131;-81
2022/04/19 06:34:24;;;;;;;10.63;1.70;;;;;;;;;;4933121;29;20051;-82
2022/04/19 06:36:51;;;;;;;8.25;2.10;;;;;;;;;;4932952;29;20116;-81
2022/04/19 06:39:17;;;;;;;17.08;3.30;;;;;;;;;;4932199;29;20420;-81
2022/04/19 06:41:44;;;;;;;7.07;1.70;;;;;;;;;;4916271;29;20052;-81
2022/04/19 06:44:10;;;;;;;11.45;2.13;;;;;;;;;;4931769;29;20154;-80
2022/04/19 06:46:37;;;;;;;6.93;1.65;;;;;;;;;;4933080;29;20130;-81
2022/04/19 06:49:05;;;;;;;10.35;2.30;;;;;;;;;;4932595;29;20070;-80
2022/04/19 06:51:32;;;;;;;8.27;1.80;;;;;;;;;;4932935;29;20068;-81
2022/04/19 06:54:00;;;;;;;7.03;1.90;;;;;;;;;;4932013;29;20327;-80
2022/04/19 06:56:27;;;;;;;7.32;1.70;;;;;;;;;;4931455;29;20079;-82
2022/04/19 06:58:54;;;;;;;9.75;1.90;;;;;;;;;;4932247;29;20051;-82
2022/04/19 07:01:23;;;;;;;12.65;1.73;;;;;;;;;;4932637;29;20127;-82
2022/04/19 07:03:50;;;;;;;8.38;1.60;;;;;;;;;;4931621;29;20048;-81
2022/04/19 07:06:17;;;;;;;6.28;1.13;;;;;;;;;;4931486;29;20563;-81
2022/04/19 07:08:44;;;;;;;7.13;1.42;;;;;;;;;;4931936;29;20095;-81
2022/04/19 07:11:12;;;;;;;6.15;1.50;;;;;;;;;;4931381;29;20047;-81
2022/04/19 07:13:38;;;;;;;4.28;1.35;;;;;;;;;;4932237;29;20094;-80
2022/04/19 07:16:05;;;;;;;6.47;0.93;;;;;;;;;;4930534;29;20059;-81
2022/04/19 07:18:32;;;;;;;9.48;1.30;;;;;;;;;;4932526;29;20457;-81
2022/04/19 07:26:38;;;;;;;7.28;1.30;;;;;;;;;;4927267;29;20051;-80
2022/04/19 07:29:05;;;;;;;8.25;1.13;;;;;;;;;;4927414;29;20079;-79
2022/04/19 07:31:33;;;;;;;10.93;1.38;;;;;;;;;;4911161;29;20074;-80
2022/04/19 07:34:01;;;;;;;4.40;0.80;;;;;;;;;;4926780;29;20480;-81
2022/04/19 07:36:28;;;;;;;5.72;1.08;;;;;;;;;;4925130;29;20067;-80
2022/04/19 07:38:57;;;;;;;8.93;0.90;;;;;;;;;;4926230;29;20541;-80
2022/04/19 07:41:25;;;;;;;4.53;0.95;;;;;;;;;;4929456;29;20437;-80
2022/04/19 07:43:52;;;;;;;7.03;1.00;;;;;;;;;;4933390;29;20122;-80
2022/04/19 07:46:19;;;;;;;6.43;1.10;;;;;;;;;;4929760;29;20162;-80
2022/04/19 07:48:47;;;;;;;6.50;1.23;;;;;;;;;;4929514;29;20054;-80
2022/04/19 07:51:14;;;;;;;6.55;1.20;;;;;;;;;;4929498;29;20044;-80
2022/04/19 07:53:41;;;;;;;6.03;1.08;;;;;;;;;;4929800;29;20106;-79
2022/04/19 07:56:08;;;;;;;6.05;1.00;;;;;;;;;;4929519;29;20130;-81
2022/04/19 07:58:35;;;;;;;9.20;1.05;;;;;;;;;;4930653;29;20051;-80
2022/04/19 08:01:02;;;;;;;9.20;1.38;;;;;;;;;;4931226;29;20048;-80
2022/04/19 08:03:28;;;;;;;8.82;1.10;;;;;;;;;;4935202;28;20590;-80
2022/04/19 08:05:56;;;;;;;5.55;0.88;;;;;;;;;;4936586;28;20114;-80
2022/04/19 08:08:22;;;;;;;8.50;1.70;;;;;;;;;;4929316;29;20457;-81
2022/04/19 08:10:49;;;;;;;4.10;1.10;;;;;;;;;;4928954;29;20083;-79
2022/04/19 08:13:16;;;;;;;7.45;1.10;;;;;;;;;;4936781;28;20118;-80
2022/04/19 08:15:44;;;;;;;5.38;1.23;;;;;;;;;;4932222;29;20134;-80
2022/04/19 08:18:13;;;;;;;9.52;1.10;;;;;;;;;;4929562;29;20052;-80
2022/04/19 08:20:40;;;;;;;5.88;0.80;;;;;;;;;;4929897;28;20055;-80
2022/04/19 08:23:10;;;;;;;8.02;0.80;;;;;;;;;;4929849;29;20139;-80
2022/04/19 08:25:38;;;;;;;6.32;0.85;;;;;;;;;;4941222;28;20047;-80
2022/04/19 08:28:05;;;;;;;6.28;1.08;;;;;;;;;;4930382;29;20135;-80
2022/04/19 08:30:32;;;;;;;4.82;0.98;;;;;;;;;;4929986;29;20127;-81
2022/04/19 08:32:59;;;;;;;8.02;1.20;;;;;;;;;;4930739;29;20464;-82
2022/04/19 08:35:26;;;;;;;9.50;1.13;;;;;;;;;;4928788;29;20106;-81
2022/04/19 08:37:53;;;;;;;6.25;1.17;;;;;;;;;;4928261;29;20086;-81
2022/04/19 08:40:20;;;;;;;2.83;0.70;;;;;;;;;;4930403;29;20095;-81
2022/04/19 08:42:47;;;;;;;10.80;1.77;;;;;;;;;;4930104;29;20126;-81
2022/04/19 08:45:15;;;;;;;5.47;0.98;;;;;;;;;;4937027;28;20137;-81
2022/04/19 08:47:45;;;;;;;5.78;1.25;;;;;;;;;;4943166;28;20074;-81
2022/04/19 08:50:14;;;;;;;2.17;0.75;;;;;;;;;;4933863;28;20114;-80
2022/04/19 08:52:41;;;;;;;4.28;0.88;;;;;;;;;;4929420;29;20440;-82
2022/04/19 08:57:55;;;;;;;5.07;0.85;;;;;;;;;;4935586;29;20114;-81
2022/04/19 09:00:23;;;;;;;5.65;1.00;;;;;;;;;;4925136;29;20130;-82
2022/04/19 09:02:52;;;;;;;4.65;0.90;;;;;;;;;;4927506;29;20052;-82
2022/04/19 09:05:24;;;;;;;6.18;0.95;;;;;;;;;;4927283;29;20055;-81
2022/04/19 09:07:52;;;;;;;6.03;1.00;;;;;;;;;;4927758;29;20532;-81
2022/04/19 09:10:30;;;;;;;7.97;1.08;;;;;;;;;;4928597;29;20114;-81
2022/04/19 09:13:02;;;;;;;4.35;0.90;;;;;;;;;;4931310;28;20071;-80
2022/04/19 09:15:43;;;;;;;6.63;1.02;;;;;;;;;;4926413;29;20126;-80
2022/04/19 09:18:26;;;;;;;4.82;1.15;;;;;;;;;;4925175;29;20493;-80
2022/04/19 09:20:53;;;;;;;4.40;1.30;;;;;;;;;;4926602;29;20149;-80
2022/04/19 09:23:21;;;;;;;5.43;1.20;;;;;;;;;;4922746;29;20051;-79
2022/04/19 09:25:53;;;;;;;5.95;1.05;;;;;;;;;;4927856;29;20059;-79
2022/04/19 09:28:21;;;;;;;4.07;0.98;;;;;;;;;;4933893;28;20047;-79
2022/04/19 09:30:56;;;;;;;4.28;0.80;;;;;;;;;;4929038;29;20106;-79
2022/04/19 09:33:25;;;;;;;2.10;0.50;;;;;;;;;;4929509;29;20047;-79
2022/04/19 09:36:03;;;;;;;4.55;1.00;;;;;;;;;;4939662;28;20087;-80
2022/04/19 09:38:42;;;;;;;2.30;0.65;;;;;;;;;;4938064;28;20135;-80
2022/04/19 09:41:10;;;;;;;2.40;0.70;;;;;;;;;;4927454;29;20143;-80
2022/04/19 09:44:14;;;;;;;4.20;0.80;;;;;;;;;;4927889;29;20455;-80
2022/04/19 09:47:19;;;;;;;3.72;0.90;;;;;;;;;;4924757;29;20129;-79
2022/04/19 09:49:51;;;;;;;2.75;0.60;;;;;;;;;;4927529;29;20146;-80
2022/04/19 09:52:20;;;;;;;3.17;0.80;;;;;;;;;;4927875;29;20074;-80
2022/04/19 09:55:08;;;;;;;3.30;0.90;;;;;;;;;;4927245;29;20218;-79
2022/04/19 09:57:39;;;;;;;3.13;0.82;;;;;;;;;;4927585;29;20387;-79
2022/04/19 10:00:14;;;;;;;2.40;0.75;;;;;;;;;;4933206;29;20046;-79
2022/04/19 10:08:19;;;;;;;3.58;1.02;;;;;;;;;;4927683;29;20572;-83
2022/04/19 10:10:47;;;;;;;5.47;0.82;;;;;;;;;;4930324;29;20457;-82
2022/04/19 10:13:17;;;;;;;4.60;0.77;;;;;;;;;;4927862;29;20126;-82
2022/04/19 10:15:44;;;;;;;4.03;0.70;;;;;;;;;;4922997;29;20134;-80
2022/04/19 10:18:12;;;;;;;4.95;0.85;;;;;;;;;;4926990;29;20044;-80
2022/04/19 10:21:02;;;;;;;5.07;0.90;;;;;;;;;;4928639;29;20098;-81
2022/04/19 10:23:36;;;;;;;2.97;0.80;;;;;;;;;;4917653;29;20056;-80
2022/04/19 10:26:20;;;;;;;3.25;0.70;;;;;;;;;;4930695;29;20143;-80
2022/04/19 10:28:52;;;;;;;3.08;0.80;;;;;;;;;;4929641;29;20048;-80
2022/04/19 10:31:34;;;;;;;3.35;0.75;;;;;;;;;;4934327;29;20496;-81
2022/04/19 10:34:03;;;;;;;3.25;0.82;;;;;;;;;;4925797;29;20509;-81
2022/04/19 10:36:32;;;;;;;5.82;0.93;;;;;;;;;;4923617;29;20095;-80
2022/04/19 10:39:08;;;;;;;5.93;1.42;;;;;;;;;;4928400;29;20075;-80
2022/04/19 10:42:05;;;;;;;5.45;1.17;;;;;;;;;;4929080;29;20070;-82
2022/04/19 10:44:32;;;;;;;4.80;0.90;;;;;;;;;;4911217;29;20043;-80
2022/04/19 10:47:16;;;;;;;5.50;0.82;;;;;;;;;;4929071;29;20056;-81
2022/04/19 10:49:58;;;;;;;6.00;1.38;;;;;;;;;;4929535;29;20094;-80
2022/04/19 10:52:40;;;;;;;2.88;0.80;;;;;;;;;;4928582;29;20052;-81
2022/04/19 10:55:17;;;;;;;2.70;0.80;;;;;;;;;;4930493;29;20555;-80
2022/04/19 11:00:34;;;;;;;4.57;1.23;;;;;;;;;;4930439;29;20050;-82
2022/04/19 11:03:46;;;;;;;3.85;0.80;;;;;;;;;;4912971;29;20131;-81
2022/04/19 11:06:40;;;;;;;4.72;1.08;;;;;;;;;;4924236;29;20039;-80
2022/04/19 11:09:21;;;;;;;4.63;0.90;;;;;;;;;;4932303;28;20049;-82
2022/04/19 11:11:53;;;;;;;3.85;0.80;;;;;;;;;;4931931;29;20062;-80
2022/04/19 11:14:20;;;;;;;6.55;1.00;;;;;;;;;;4930272;29;20067;-78
2022/04/19 11:16:50;;;;;;;4.32;0.80;;;;;;;;;;4934611;29;20051;-82
2022/04/19 11:19:20;;;;;;;3.50;0.98;;;;;;;;;;4917581;29;20076;-83
2022/04/19 11:21:59;;;;;;;3.13;0.65;;;;;;;;;;4934173;29;20051;-82
2022/04/19 11:25:01;;;;;;;2.17;0.60;;;;;;;;;;4929161;29;20110;-80
2022/04/19 11:27:52;;;;;;;3.42;0.75;;;;;;;;;;4921209;29;20060;-82
2022/04/19 11:30:26;;;;;;;4.63;0.85;;;;;;;;;;4928675;29;20124;-82
2022/04/19 11:32:58;;;;;;;2.35;0.75;;;;;;;;;;4933721;29;20495;-83
2022/04/19 11:35:32;;;;;;;3.78;0.88;;;;;;;;;;4933389;29;20111;-83
2022/04/19 11:38:08;;;;;;;4.10;0.80;;;;;;;;;;4931461;29;20095;-83
2022/04/19 11:49:29;;;;;;;6.55;1.13;;;;;;;;;;4933642;29;20047;-82
2022/04/19 11:52:11;;;;;;;5.35;1.40;;;;;;;;;;4931448;29;20126;-83
2022/04/19 11:54:39;;;;;;;5.22;1.40;;;;;;;;;;4932541;28;20053;-80
2022/04/19 11:57:08;;;;;;;5.13;1.23;;;;;;;;;;4931490;29;20126;-81
2022/04/19 11:59:34;;;;;;;;;;;;;;;;;;4931028;29;20567;-79
2022/04/19 12:02:12;;;;;;;5.80;1.27;;;;;;;;;;4932525;29;19994;-80
2022/04/19 12:04:54;;;;;;;5.53;1.23;;;;;;;;;;4926433;29;20116;-81
2022/04/19 12:07:21;;;;;;;3.35;1.38;;;;;;;;;;4928353;29;20107;-81
2022/04/19 12:09:52;;;;;;;6.65;1.23;;;;;;;;;;4917788;29;20106;-80
2022/04/19 12:12:20;;;;;;;4.68;1.52;;;;;;;;;;4919951;29;20551;-80
2022/04/19 12:14:52;;;;;;;5.50;1.10;;;;;;;;;;4928811;29;20527;-80
2022/04/19 12:17:23;;;;;;;2.17;1.05;;;;;;;;;;4920159;29;20135;-80
2022/04/19 12:19:59;;;;;;;4.22;1.20;;;;;;;;;;4922063;29;20495;-80
2022/04/19 12:22:26;;;;;;;3.85;1.23;;;;;;;;;;4920276;29;20067;-81
2022/04/19 12:24:58;;;;;;;2.83;1.08;;;;;;;;;;4921911;28;20079;-80
2022/04/19 12:27:32;;;;;;;6.65;1.42;;;;;;;;;;4918486;29;20052;-81
2022/04/19 12:30:04;;;;;;;5.45;1.35;;;;;;;;;;4922647;29;20056;-80
2022/04/19 12:32:57;;;;;;;3.95;1.20;;;;;;;;;;4925180;29;20050;-80
2022/04/19 12:35:34;;;;;;;3.40;1.17;;;;;;;;;;4922559;29;20051;-81
2022/04/19 12:38:06;;;;;;;5.20;1.05;;;;;;;;;;4920495;29;20051;-80
2022/04/19 12:40:33;;;;;;;4.80;1.10;;;;;;;;;;4922917;29;20048;-81
2022/04/19 12:43:00;;;;;;;5.22;1.30;;;;;;;;;;4916500;29;20040;-80
2022/04/19 12:45:32;;;;;;;4.65;1.10;;;;;;;;;;4914100;29;20524;-79
2022/04/19 12:48:00;;;;;;;3.72;1.00;;;;;;;;;;4917944;28;20058;-81
2022/04/19 12:50:28;;;;;;;3.75;0.90;;;;;;;;;;4921339;29;20051;-79
2022/04/19 12:52:55;;;;;;;3.92;1.35;;;;;;;;;;4917965;29;20087;-78
2022/04/19 12:58:14;;;;;;;4.78;1.17;;;;;;;;;;4918087;29;20063;-81
2022/04/19 13:00:41;;;;;;;2.95;0.90;;;;;;;;;;4919053;29;20478;-79
2022/04/19 13:03:07;;;;;;;3.58;0.80;;;;;;;;;;4917874;28;20126;-79
2022/04/19 13:13:50;;;;;;;4.68;0.80;;;;;;;;;;4932564;29;20074;-81
2022/04/19 13:16:17;;;;;;;2.85;0.85;;;;;;;;;;4930975;29;20076;-81
2022/04/19 13:18:44;;;;;;;3.08;0.85;;;;;;;;;;4931836;29;20054;-80
2022/04/19 13:21:10;;;;;;;3.38;0.80;;;;;;;;;;4932909;28;20145;-81
2022/04/19 13:23:37;;;;;;;5.75;0.98;;;;;;;;;;4924676;29;20047;-81
2022/04/19 13:26:03;;;;;;;3.33;1.10;;;;;;;;;;4931645;28;20101;-79
2022/04/19 13:28:30;;;;;;;3.97;0.80;;;;;;;;;;4929201;29;20082;-80
2022/04/19 13:30:57;;;;;;;4.95;1.10;;;;;;;;;;4930777;29;20604;-83
2022/04/19 13:33:23;;;;;;;4.03;0.80;;;;;;;;;;4926284;29;20055;-82
2022/04/19 13:35:50;;;;;;;3.97;1.00;;;;;;;;;;4927818;29;20982;-78
2022/04/19 13:38:26;;;;;;;4.50;1.20;;;;;;;;;;4934577;29;20073;-82
2022/04/19 13:40:52;;;;;;;3.88;0.80;;;;;;;;;;4930670;29;20083;-82
2022/04/19 13:43:19;;;;;;;3.83;0.80;;;;;;;;;;4926951;29;20387;-83
2022/04/19 13:45:47;;;;;;;2.45;0.70;;;;;;;;;;4930365;29;20052;-81
2022/04/19 13:48:14;;;;;;;4.85;0.77;;;;;;;;;;4929958;29;21000;-82
2022/04/19 13:50:41;;;;;;;3.97;0.88;;;;;;;;;;4930648;29;20079;-82
2022/04/19 13:53:07;;;;;;;4.05;0.70;;;;;;;;;;4927464;29;20106;-83
2022/04/19 13:55:34;;;;;;;3.80;0.82;;;;;;;;;;4928586;29;20162;-82
2022/04/19 13:58:02;;;;;;;3.10;0.75;;;;;;;;;;4929619;29;20123;-80
2022/04/19 14:00:28;;;;;;;5.53;1.00;;;;;;;;;;4929626;29;20071;-82
2022/04/19 14:02:56;;;;;;;2.83;0.65;;;;;;;;;;4929663;29;20059;-82
2022/04/19 14:05:23;;;;;;;3.25;0.95;;;;;;;;;;4904786;28;20079;-82
2022/04/19 14:07:49;;;;;;;2.45;0.60;;;;;;;;;;4932258;29;20253;-83
2022/04/19 14:10:16;;;;;;;3.20;0.70;;;;;;;;;;4932433;29;20051;-83
2022/04/19 14:12:44;;;;;;;4.00;0.80;;;;;;;;;;4930814;29;20611;-84
2022/04/19 14:15:11;;;;;;;2.53;0.90;;;;;;;;;;4930558;28;20043;-83
2022/04/19 14:17:38;;;;;;;3.78;0.95;;;;;;;;;;4930381;29;20044;-84
2022/04/19 14:20:05;;;;;;;2.72;0.82;;;;;;;;;;4930931;29;20055;-83
2022/04/19 14:22:35;;;;;;;3.47;0.50;;;;;;;;;;4929079;29;20044;-84
2022/04/19 14:25:02;;;;;;;4.55;0.80;;;;;;;;;;4930372;28;20100;-83
2022/04/19 14:27:29;;;;;;;5.88;0.95;;;;;;;;;;4930195;28;20123;-84
2022/04/19 14:35:27;;;;;;;6.00;0.95;;;;;;;;;;4929698;28;20055;-85
2022/04/19 14:37:53;;;;;;;6.13;0.73;;;;;;;;;;4930181;29;20135;-84
2022/04/19 14:40:20;;;;;;;3.25;0.85;;;;;;;;;;4930013;28;20091;-84
2022/04/19 14:42:48;;;;;;;6.35;1.05;;;;;;;;;;4927786;29;20114;-84
2022/04/19 14:45:16;;;;;;;4.53;0.63;;;;;;;;;;4930827;28;20512;-84
2022/04/19 14:47:43;;;;;;;3.60;0.80;;;;;;;;;;4928348;29;20055;-83
2022/04/19 14:50:10;;;;;;;4.35;0.65;;;;;;;;;;4930190;28;20291;-84
2022/04/19 14:52:36;;;;;;;4.38;0.90;;;;;;;;;;4927762;28;20048;-84
2022/04/19 14:55:03;;;;;;;4.78;0.98;;;;;;;;;;4930440;28;20122;-85
2022/04/19 14:57:30;;;;;;;7.53;0.85;;;;;;;;;;4944010;28;20060;-83
2022/04/19 14:59:57;;;;;;;3.95;0.80;;;;;;;;;;4929901;29;20711;-83
2022/04/19 15:02:23;;;;;;;6.03;1.17;;;;;;;;;;4929959;28;20115;-83
2022/04/19 15:04:51;;;;;;;2.53;0.73;;;;;;;;;;4930331;28;20043;-81
2022/04/19 15:07:17;;;;;;;4.45;0.88;;;;;;;;;;4930240;29;20130;-83
2022/04/19 15:09:44;;;;;;;3.95;0.88;;;;;;;;;;4931402;29;20079;-82
2022/04/19 15:12:13;;;;;;;7.05;1.00;;;;;;;;;;4930537;29;20072;-83
2022/04/19 15:14:40;;;;;;;3.20;0.95;;;;;;;;;;4912996;29;20516;-83
2022/04/19 15:17:07;;;;;;;4.35;0.80;;;;;;;;;;4929987;29;20142;-83
2022/04/19 15:19:34;;;;;;;4.43;0.90;;;;;;;;;;4912751;29;20055;-81
2022/04/19 15:22:01;;;;;;;4.68;0.80;;;;;;;;;;4930372;29;20047;-81
2022/04/19 15:24:27;;;;;;;4.03;1.05;;;;;;;;;;4930072;29;20098;-80
2022/04/19 15:26:54;;;;;;;3.03;0.73;;;;;;;;;;4930180;29;20592;-80
2022/04/19 15:29:24;;;;;;;1.65;0.60;;;;;;;;;;4928993;29;20138;-81
2022/04/19 15:31:51;;;;;;;5.95;0.70;;;;;;;;;;4929199;29;20124;-81
2022/04/19 15:34:18;;;;;;;7.35;1.20;;;;;;;;;;4930031;29;20075;-80
2022/04/19 15:36:51;;;;;;;4.65;0.90;;;;;;;;;;4927450;29;20067;-80
2022/04/19 15:39:18;;;;;;;7.32;1.27;;;;;;;;;;4929531;29;20103;-81
2022/04/19 15:41:45;;;;;;;2.80;0.90;;;;;;;;;;4930480;29;20051;-81
2022/04/19 15:44:11;;;;;;;5.07;0.80;;;;;;;;;;4928391;29;20082;-80
2022/04/19 15:46:38;;;;;;;2.50;0.70;;;;;;;;;;4930253;29;20052;-82